sensor_id;sensor_type;location;lat;lon;timestamp;temperature;humidity
28546;DHT22;15749;49.606;8.738;2022-09-24T00:00:05;18.70;76.50
28546;DHT22;15749;49.606;8.738;2022-09-24T00:02:54;18.70;76.70
28546;DHT22;15749;49.606;8.738;2022-09-24T00:05:43;18.70;76.70
28546;DHT22;15749;49.606;8.738;2022-09-24T00:08:30;18.70;76.80
28546;DHT22;15749;49.606;8.738;2022-09-24T00:11:18;18.60;77.50
28546;DHT22;15749;49.606;8.738;2022-09-24T00:14:07;18.60;76.80
28546;DHT22;15749;49.606;8.738;2022-09-24T00:16:54;18.60;76.70
28546;DHT22;15749;49.606;8.738;2022-09-24T00:19:41;18.60;76.40
28546;DHT22;15749;49.606;8.738;2022-09-24T00:22:31;18.60;76.60
28546;DHT22;15749;49.606;8.738;2022-09-24T00:25:18;18.60;76.80
28546;DHT22;15749;49.606;8.738;2022-09-24T00:28:23;18.60;76.60
28546;DHT22;15749;49.606;8.738;2022-09-24T00:31:10;18.60;77.50
28546;DHT22;15749;49.606;8.738;2022-09-24T00:33:58;18.60;76.60
28546;DHT22;15749;49.606;8.738;2022-09-24T00:36:46;18.50;76.80
28546;DHT22;15749;49.606;8.738;2022-09-24T00:39:35;18.50;76.90
28546;DHT22;15749;49.606;8.738;2022-09-24T00:42:23;18.50;77.10
28546;DHT22;15749;49.606;8.738;2022-09-24T00:45:10;18.50;76.80
28546;DHT22;15749;49.606;8.738;2022-09-24T00:47:58;18.50;77.60
28546;DHT22;15749;49.606;8.738;2022-09-24T00:50:46;18.50;76.70
28546;DHT22;15749;49.606;8.738;2022-09-24T00:53:34;18.50;76.90
28546;DHT22;15749;49.606;8.738;2022-09-24T00:56:23;18.50;77.10
28546;DHT22;15749;49.606;8.738;2022-09-24T00:59:19;18.50;77.00
28546;DHT22;15749;49.606;8.738;2022-09-24T01:02:09;18.50;76.90
28546;DHT22;15749;49.606;8.738;2022-09-24T01:04:57;18.50;76.80
28546;DHT22;15749;49.606;8.738;2022-09-24T01:07:45;18.50;76.90
28546;DHT22;15749;49.606;8.738;2022-09-24T01:10:43;18.50;77.10
28546;DHT22;15749;49.606;8.738;2022-09-24T01:13:57;18.40;77.40
28546;DHT22;15749;49.606;8.738;2022-09-24T01:17:03;18.40;77.70
28546;DHT22;15749;49.606;8.738;2022-09-24T01:20:20;18.40;77.20
28546;DHT22;15749;49.606;8.738;2022-09-24T01:23:33;18.40;77.40
28546;DHT22;15749;49.606;8.738;2022-09-24T01:26:46;18.40;77.80
28546;DHT22;15749;49.606;8.738;2022-09-24T01:29:58;18.40;77.10
28546;DHT22;15749;49.606;8.738;2022-09-24T01:32:52;18.30;77.40
28546;DHT22;15749;49.606;8.738;2022-09-24T01:35:43;18.30;77.10
28546;DHT22;15749;49.606;8.738;2022-09-24T01:38:36;18.30;77.00
28546;DHT22;15749;49.606;8.738;2022-09-24T01:41:26;18.30;77.10
28546;DHT22;15749;49.606;8.738;2022-09-24T01:44:14;18.30;76.90
28546;DHT22;15749;49.606;8.738;2022-09-24T01:47:05;18.20;77.00
28546;DHT22;15749;49.606;8.738;2022-09-24T01:49:54;18.20;77.10
28546;DHT22;15749;49.606;8.738;2022-09-24T01:52:44;18.20;76.70
28546;DHT22;15749;49.606;8.738;2022-09-24T01:55:38;18.20;77.00
28546;DHT22;15749;49.606;8.738;2022-09-24T01:58:35;18.20;76.70
28546;DHT22;15749;49.606;8.738;2022-09-24T02:01:29;18.10;76.60
28546;DHT22;15749;49.606;8.738;2022-09-24T02:04:20;18.10;76.80
28546;DHT22;15749;49.606;8.738;2022-09-24T02:07:11;18.10;76.30
28546;DHT22;15749;49.606;8.738;2022-09-24T02:10:01;18.10;76.10
28546;DHT22;15749;49.606;8.738;2022-09-24T02:12:53;18.10;76.20
28546;DHT22;15749;49.606;8.738;2022-09-24T02:15:45;18.10;76.20
28546;DHT22;15749;49.606;8.738;2022-09-24T02:18:38;18.00;76.30
28546;DHT22;15749;49.606;8.738;2022-09-24T02:21:29;18.00;76.00
28546;DHT22;15749;49.606;8.738;2022-09-24T02:24:21;18.00;76.40
28546;DHT22;15749;49.606;8.738;2022-09-24T02:27:11;18.00;76.20
28546;DHT22;15749;49.606;8.738;2022-09-24T02:29:59;17.90;76.30
28546;DHT22;15749;49.606;8.738;2022-09-24T02:32:48;17.90;76.60
28546;DHT22;15749;49.606;8.738;2022-09-24T02:35:37;17.90;76.40
28546;DHT22;15749;49.606;8.738;2022-09-24T02:38:27;17.90;76.20
28546;DHT22;15749;49.606;8.738;2022-09-24T02:41:14;17.90;76.10
28546;DHT22;15749;49.606;8.738;2022-09-24T02:44:01;17.90;75.90
28546;DHT22;15749;49.606;8.738;2022-09-24T02:46:49;17.80;76.10
28546;DHT22;15749;49.606;8.738;2022-09-24T02:49:37;17.80;76.00
28546;DHT22;15749;49.606;8.738;2022-09-24T02:52:24;17.80;76.10
28546;DHT22;15749;49.606;8.738;2022-09-24T02:55:13;17.70;76.40
28546;DHT22;15749;49.606;8.738;2022-09-24T02:58:01;17.70;76.40
28546;DHT22;15749;49.606;8.738;2022-09-24T03:00:48;17.70;76.60
28546;DHT22;15749;49.606;8.738;2022-09-24T03:03:36;17.70;76.20
28546;DHT22;15749;49.606;8.738;2022-09-24T03:06:23;17.60;75.70
28546;DHT22;15749;49.606;8.738;2022-09-24T03:09:11;17.60;75.40
28546;DHT22;15749;49.606;8.738;2022-09-24T03:12:00;17.60;75.70
28546;DHT22;15749;49.606;8.738;2022-09-24T03:14:48;17.50;76.20
28546;DHT22;15749;49.606;8.738;2022-09-24T03:17:35;17.50;77.10
28546;DHT22;15749;49.606;8.738;2022-09-24T03:20:22;17.50;76.10
28546;DHT22;15749;49.606;8.738;2022-09-24T03:23:09;17.50;76.30
28546;DHT22;15749;49.606;8.738;2022-09-24T03:25:57;17.40;76.50
28546;DHT22;15749;49.606;8.738;2022-09-24T03:28:46;17.40;76.60
28546;DHT22;15749;49.606;8.738;2022-09-24T03:31:33;17.40;76.50
28546;DHT22;15749;49.606;8.738;2022-09-24T03:34:19;17.40;76.00
28546;DHT22;15749;49.606;8.738;2022-09-24T03:37:07;17.40;75.80
28546;DHT22;15749;49.606;8.738;2022-09-24T03:39:54;17.40;76.80
28546;DHT22;15749;49.606;8.738;2022-09-24T03:42:41;17.40;76.40
28546;DHT22;15749;49.606;8.738;2022-09-24T03:45:30;17.30;75.80
28546;DHT22;15749;49.606;8.738;2022-09-24T03:48:19;17.30;76.10
28546;DHT22;15749;49.606;8.738;2022-09-24T03:51:09;17.30;76.40
28546;DHT22;15749;49.606;8.738;2022-09-24T03:53:57;17.30;76.20
28546;DHT22;15749;49.606;8.738;2022-09-24T03:56:44;17.20;76.00
28546;DHT22;15749;49.606;8.738;2022-09-24T03:59:31;17.20;76.20
28546;DHT22;15749;49.606;8.738;2022-09-24T04:02:20;17.20;76.20
28546;DHT22;15749;49.606;8.738;2022-09-24T04:05:08;17.20;76.00
28546;DHT22;15749;49.606;8.738;2022-09-24T04:07:55;17.10;76.20
28546;DHT22;15749;49.606;8.738;2022-09-24T04:10:44;17.10;76.20
28546;DHT22;15749;49.606;8.738;2022-09-24T04:13:32;17.10;76.10
28546;DHT22;15749;49.606;8.738;2022-09-24T04:16:20;17.10;75.80
28546;DHT22;15749;49.606;8.738;2022-09-24T04:19:11;17.00;76.00
28546;DHT22;15749;49.606;8.738;2022-09-24T04:21:59;17.00;76.30
28546;DHT22;15749;49.606;8.738;2022-09-24T04:24:46;17.00;76.20
28546;DHT22;15749;49.606;8.738;2022-09-24T04:27:33;16.90;76.40
28546;DHT22;15749;49.606;8.738;2022-09-24T04:30:22;16.90;76.00
28546;DHT22;15749;49.606;8.738;2022-09-24T04:33:10;16.90;75.90
28546;DHT22;15749;49.606;8.738;2022-09-24T04:35:58;16.80;76.20
28546;DHT22;15749;49.606;8.738;2022-09-24T04:38:46;16.80;76.20
28546;DHT22;15749;49.606;8.738;2022-09-24T04:41:33;16.80;76.40
28546;DHT22;15749;49.606;8.738;2022-09-24T04:44:20;16.80;76.50
28546;DHT22;15749;49.606;8.738;2022-09-24T04:47:08;16.80;76.20
28546;DHT22;15749;49.606;8.738;2022-09-24T04:49:56;16.70;76.00
28546;DHT22;15749;49.606;8.738;2022-09-24T04:52:45;16.70;76.20
28546;DHT22;15749;49.606;8.738;2022-09-24T04:55:33;16.70;75.90
28546;DHT22;15749;49.606;8.738;2022-09-24T04:58:22;16.70;76.00
28546;DHT22;15749;49.606;8.738;2022-09-24T05:01:09;16.70;76.40
28546;DHT22;15749;49.606;8.738;2022-09-24T05:03:58;16.70;76.50
28546;DHT22;15749;49.606;8.738;2022-09-24T05:06:46;16.60;76.70
28546;DHT22;15749;49.606;8.738;2022-09-24T05:09:34;16.70;77.10
28546;DHT22;15749;49.606;8.738;2022-09-24T05:12:22;16.60;76.60
28546;DHT22;15749;49.606;8.738;2022-09-24T05:15:09;16.60;76.60
28546;DHT22;15749;49.606;8.738;2022-09-24T05:17:57;16.60;76.50
28546;DHT22;15749;49.606;8.738;2022-09-24T05:20:44;16.60;76.40
28546;DHT22;15749;49.606;8.738;2022-09-24T05:23:32;16.60;76.70
28546;DHT22;15749;49.606;8.738;2022-09-24T05:26:22;16.50;76.60
28546;DHT22;15749;49.606;8.738;2022-09-24T05:29:27;16.50;76.30
28546;DHT22;15749;49.606;8.738;2022-09-24T05:32:17;16.50;76.50
28546;DHT22;15749;49.606;8.738;2022-09-24T05:35:06;16.50;76.60
28546;DHT22;15749;49.606;8.738;2022-09-24T05:37:54;16.40;76.60
28546;DHT22;15749;49.606;8.738;2022-09-24T05:40:41;16.40;76.60
28546;DHT22;15749;49.606;8.738;2022-09-24T05:43:36;16.40;77.20
28546;DHT22;15749;49.606;8.738;2022-09-24T05:46:24;16.40;77.50
28546;DHT22;15749;49.606;8.738;2022-09-24T05:49:11;16.40;77.00
28546;DHT22;15749;49.606;8.738;2022-09-24T05:51:59;16.40;77.90
28546;DHT22;15749;49.606;8.738;2022-09-24T05:54:47;16.30;77.20
28546;DHT22;15749;49.606;8.738;2022-09-24T05:57:34;16.30;77.20
28546;DHT22;15749;49.606;8.738;2022-09-24T06:00:23;16.30;77.10
28546;DHT22;15749;49.606;8.738;2022-09-24T06:03:12;16.30;78.00
28546;DHT22;15749;49.606;8.738;2022-09-24T06:05:43;16.30;77.40
28546;DHT22;15749;49.606;8.738;2022-09-24T06:08:14;16.30;78.00
28546;DHT22;15749;49.606;8.738;2022-09-24T06:10:45;16.30;77.60
28546;DHT22;15749;49.606;8.738;2022-09-24T06:13:17;16.30;78.00
28546;DHT22;15749;49.606;8.738;2022-09-24T06:15:48;16.30;78.00
28546;DHT22;15749;49.606;8.738;2022-09-24T06:18:17;16.30;77.90
28546;DHT22;15749;49.606;8.738;2022-09-24T06:20:46;16.30;77.90
28546;DHT22;15749;49.606;8.738;2022-09-24T06:23:15;16.40;78.10
28546;DHT22;15749;49.606;8.738;2022-09-24T06:25:48;16.40;78.20
28546;DHT22;15749;49.606;8.738;2022-09-24T06:28:18;16.40;78.60
28546;DHT22;15749;49.606;8.738;2022-09-24T06:30:48;16.40;78.30
28546;DHT22;15749;49.606;8.738;2022-09-24T06:33:17;16.40;78.50
28546;DHT22;15749;49.606;8.738;2022-09-24T06:35:47;16.40;78.70
28546;DHT22;15749;49.606;8.738;2022-09-24T06:38:17;16.40;78.80
28546;DHT22;15749;49.606;8.738;2022-09-24T06:40:47;16.50;79.90
28546;DHT22;15749;49.606;8.738;2022-09-24T06:43:16;16.50;79.00
28546;DHT22;15749;49.606;8.738;2022-09-24T06:45:45;16.50;79.00
28546;DHT22;15749;49.606;8.738;2022-09-24T06:48:16;16.50;79.60
28546;DHT22;15749;49.606;8.738;2022-09-24T06:50:45;16.50;78.70
28546;DHT22;15749;49.606;8.738;2022-09-24T06:53:14;16.60;78.60
28546;DHT22;15749;49.606;8.738;2022-09-24T06:55:44;16.60;78.80
28546;DHT22;15749;49.606;8.738;2022-09-24T06:58:15;16.60;78.80
28546;DHT22;15749;49.606;8.738;2022-09-24T07:00:53;16.60;79.10
28546;DHT22;15749;49.606;8.738;2022-09-24T07:03:27;16.60;79.80
28546;DHT22;15749;49.606;8.738;2022-09-24T07:06:00;16.70;79.80
28546;DHT22;15749;49.606;8.738;2022-09-24T07:08:31;16.70;80.30
28546;DHT22;15749;49.606;8.738;2022-09-24T07:11:00;16.80;80.30
28546;DHT22;15749;49.606;8.738;2022-09-24T07:13:30;16.80;80.10
28546;DHT22;15749;49.606;8.738;2022-09-24T07:16:00;16.90;80.10
28546;DHT22;15749;49.606;8.738;2022-09-24T07:18:30;16.90;80.10
28546;DHT22;15749;49.606;8.738;2022-09-24T07:20:59;17.00;80.10
28546;DHT22;15749;49.606;8.738;2022-09-24T07:23:28;17.00;80.00
28546;DHT22;15749;49.606;8.738;2022-09-24T07:25:58;17.10;80.00
28546;DHT22;15749;49.606;8.738;2022-09-24T07:28:27;17.10;80.00
28546;DHT22;15749;49.606;8.738;2022-09-24T07:30:58;17.10;80.00
28546;DHT22;15749;49.606;8.738;2022-09-24T07:33:31;17.20;80.00
28546;DHT22;15749;49.606;8.738;2022-09-24T07:36:03;17.20;79.80
28546;DHT22;15749;49.606;8.738;2022-09-24T07:38:33;17.20;80.70
28546;DHT22;15749;49.606;8.738;2022-09-24T07:41:04;17.30;80.00
28546;DHT22;15749;49.606;8.738;2022-09-24T07:43:57;17.30;80.00
28546;DHT22;15749;49.606;8.738;2022-09-24T07:46:27;17.30;79.90
28546;DHT22;15749;49.606;8.738;2022-09-24T07:48:58;17.40;80.20
28546;DHT22;15749;49.606;8.738;2022-09-24T07:51:33;17.40;80.60
28546;DHT22;15749;49.606;8.738;2022-09-24T07:54:03;17.50;80.90
28546;DHT22;15749;49.606;8.738;2022-09-24T07:56:39;17.50;80.70
28546;DHT22;15749;49.606;8.738;2022-09-24T07:59:17;17.60;80.90
28546;DHT22;15749;49.606;8.738;2022-09-24T08:01:47;17.60;80.60
28546;DHT22;15749;49.606;8.738;2022-09-24T08:04:18;17.70;80.70
28546;DHT22;15749;49.606;8.738;2022-09-24T08:06:48;17.70;80.70
28546;DHT22;15749;49.606;8.738;2022-09-24T08:09:19;17.80;80.90
28546;DHT22;15749;49.606;8.738;2022-09-24T08:11:50;17.80;81.10
28546;DHT22;15749;49.606;8.738;2022-09-24T08:14:33;17.90;80.90
28546;DHT22;15749;49.606;8.738;2022-09-24T08:17:05;17.90;81.10
28546;DHT22;15749;49.606;8.738;2022-09-24T08:19:36;18.00;81.00
28546;DHT22;15749;49.606;8.738;2022-09-24T08:22:33;18.00;80.50
28546;DHT22;15749;49.606;8.738;2022-09-24T08:25:03;18.10;80.70
28546;DHT22;15749;49.606;8.738;2022-09-24T08:27:33;18.20;80.30
28546;DHT22;15749;49.606;8.738;2022-09-24T08:30:10;18.20;80.30
28546;DHT22;15749;49.606;8.738;2022-09-24T08:32:45;18.20;80.50
28546;DHT22;15749;49.606;8.738;2022-09-24T08:35:16;18.30;80.60
28546;DHT22;15749;49.606;8.738;2022-09-24T08:37:46;18.30;80.60
28546;DHT22;15749;49.606;8.738;2022-09-24T08:40:23;18.40;80.60
28546;DHT22;15749;49.606;8.738;2022-09-24T08:43:01;18.50;81.10
28546;DHT22;15749;49.606;8.738;2022-09-24T08:45:41;18.50;81.30
28546;DHT22;15749;49.606;8.738;2022-09-24T08:48:34;18.60;81.50
28546;DHT22;15749;49.606;8.738;2022-09-24T08:51:14;18.60;81.50
28546;DHT22;15749;49.606;8.738;2022-09-24T08:53:48;18.70;81.30
28546;DHT22;15749;49.606;8.738;2022-09-24T08:56:40;18.80;81.90
28546;DHT22;15749;49.606;8.738;2022-09-24T08:59:23;18.90;82.00
28546;DHT22;15749;49.606;8.738;2022-09-24T09:02:10;19.00;81.80
28546;DHT22;15749;49.606;8.738;2022-09-24T09:05:01;19.00;81.70
28546;DHT22;15749;49.606;8.738;2022-09-24T09:07:41;19.10;81.70
28546;DHT22;15749;49.606;8.738;2022-09-24T09:10:14;19.20;81.80
28546;DHT22;15749;49.606;8.738;2022-09-24T09:12:55;19.30;81.90
28546;DHT22;15749;49.606;8.738;2022-09-24T09:15:29;19.40;81.70
28546;DHT22;15749;49.606;8.738;2022-09-24T09:18:04;19.40;81.80
28546;DHT22;15749;49.606;8.738;2022-09-24T09:20:41;19.50;81.70
28546;DHT22;15749;49.606;8.738;2022-09-24T09:23:16;19.60;81.60
28546;DHT22;15749;49.606;8.738;2022-09-24T09:25:50;19.70;81.30
28546;DHT22;15749;49.606;8.738;2022-09-24T09:28:23;19.70;81.20
28546;DHT22;15749;49.606;8.738;2022-09-24T09:31:00;19.80;81.20
28546;DHT22;15749;49.606;8.738;2022-09-24T09:33:45;19.80;81.10
28546;DHT22;15749;49.606;8.738;2022-09-24T09:36:34;19.90;80.70
28546;DHT22;15749;49.606;8.738;2022-09-24T09:39:28;19.90;80.20
28546;DHT22;15749;49.606;8.738;2022-09-24T09:42:14;20.00;80.20
28546;DHT22;15749;49.606;8.738;2022-09-24T09:44:49;20.00;79.90
28546;DHT22;15749;49.606;8.738;2022-09-24T09:47:24;20.10;80.10
28546;DHT22;15749;49.606;8.738;2022-09-24T09:50:05;20.10;80.30
28546;DHT22;15749;49.606;8.738;2022-09-24T09:52:38;20.10;80.10
28546;DHT22;15749;49.606;8.738;2022-09-24T09:55:19;20.20;80.60
28546;DHT22;15749;49.606;8.738;2022-09-24T09:57:50;20.30;80.60
28546;DHT22;15749;49.606;8.738;2022-09-24T10:00:25;20.30;80.90
28546;DHT22;15749;49.606;8.738;2022-09-24T10:02:56;20.40;80.40
28546;DHT22;15749;49.606;8.738;2022-09-24T10:05:26;20.50;80.40
28546;DHT22;15749;49.606;8.738;2022-09-24T10:07:59;20.60;80.60
28546;DHT22;15749;49.606;8.738;2022-09-24T10:10:30;20.60;80.30
28546;DHT22;15749;49.606;8.738;2022-09-24T10:13:08;20.70;80.40
28546;DHT22;15749;49.606;8.738;2022-09-24T10:15:48;20.80;80.10
28546;DHT22;15749;49.606;8.738;2022-09-24T10:18:27;20.80;80.00
28546;DHT22;15749;49.606;8.738;2022-09-24T10:21:01;20.90;80.00
28546;DHT22;15749;49.606;8.738;2022-09-24T10:23:36;21.00;80.00
28546;DHT22;15749;49.606;8.738;2022-09-24T10:26:09;21.00;79.80
28546;DHT22;15749;49.606;8.738;2022-09-24T10:28:44;21.10;79.80
28546;DHT22;15749;49.606;8.738;2022-09-24T10:31:36;21.10;79.80
28546;DHT22;15749;49.606;8.738;2022-09-24T10:34:21;21.20;79.90
28546;DHT22;15749;49.606;8.738;2022-09-24T10:36:59;21.20;79.90
28546;DHT22;15749;49.606;8.738;2022-09-24T10:39:37;21.30;79.60
28546;DHT22;15749;49.606;8.738;2022-09-24T10:42:22;21.30;79.70
28546;DHT22;15749;49.606;8.738;2022-09-24T10:44:58;21.30;79.20
28546;DHT22;15749;49.606;8.738;2022-09-24T10:47:38;21.30;79.10
28546;DHT22;15749;49.606;8.738;2022-09-24T10:50:26;21.40;79.00
28546;DHT22;15749;49.606;8.738;2022-09-24T10:53:11;21.40;79.10
28546;DHT22;15749;49.606;8.738;2022-09-24T10:55:52;21.40;78.90
28546;DHT22;15749;49.606;8.738;2022-09-24T10:58:46;21.50;77.80
28546;DHT22;15749;49.606;8.738;2022-09-24T11:01:31;21.50;78.00
28546;DHT22;15749;49.606;8.738;2022-09-24T11:04:25;21.50;77.60
28546;DHT22;15749;49.606;8.738;2022-09-24T11:13:56;21.60;77.40
28546;DHT22;15749;49.606;8.738;2022-09-24T11:16:55;21.60;77.30
28546;DHT22;15749;49.606;8.738;2022-09-24T11:19:52;21.70;77.80
28546;DHT22;15749;49.606;8.738;2022-09-24T11:22:42;21.70;77.30
28546;DHT22;15749;49.606;8.738;2022-09-24T11:25:37;21.70;77.60
28546;DHT22;15749;49.606;8.738;2022-09-24T11:28:34;21.80;77.80
28546;DHT22;15749;49.606;8.738;2022-09-24T11:31:24;21.80;77.70
28546;DHT22;15749;49.606;8.738;2022-09-24T11:34:24;21.80;77.60
28546;DHT22;15749;49.606;8.738;2022-09-24T11:37:13;21.80;77.70
28546;DHT22;15749;49.606;8.738;2022-09-24T11:40:04;21.90;77.40
28546;DHT22;15749;49.606;8.738;2022-09-24T11:43:02;21.90;77.30
28546;DHT22;15749;49.606;8.738;2022-09-24T11:45:50;21.90;77.80
28546;DHT22;15749;49.606;8.738;2022-09-24T11:51:44;22.00;77.80
28546;DHT22;15749;49.606;8.738;2022-09-24T11:54:28;22.00;77.00
28546;DHT22;15749;49.606;8.738;2022-09-24T11:57:08;22.00;77.30
28546;DHT22;15749;49.606;8.738;2022-09-24T11:59:56;22.10;77.60
28546;DHT22;15749;49.606;8.738;2022-09-24T12:02:36;22.10;77.50
28546;DHT22;15749;49.606;8.738;2022-09-24T12:05:27;22.10;77.80
28546;DHT22;15749;49.606;8.738;2022-09-24T12:08:06;22.10;77.20
28546;DHT22;15749;49.606;8.738;2022-09-24T12:10:45;22.10;77.10
28546;DHT22;15749;49.606;8.738;2022-09-24T12:13:29;22.10;77.50
28546;DHT22;15749;49.606;8.738;2022-09-24T12:16:16;22.10;77.10
28546;DHT22;15749;49.606;8.738;2022-09-24T12:19:08;22.20;77.40
28546;DHT22;15749;49.606;8.738;2022-09-24T12:21:53;22.20;77.20
28546;DHT22;15749;49.606;8.738;2022-09-24T12:24:50;22.20;77.10
28546;DHT22;15749;49.606;8.738;2022-09-24T12:27:32;22.20;77.40
28546;DHT22;15749;49.606;8.738;2022-09-24T12:30:22;22.20;77.50
28546;DHT22;15749;49.606;8.738;2022-09-24T12:33:22;22.20;76.20
28546;DHT22;15749;49.606;8.738;2022-09-24T12:36:09;22.20;76.50
28546;DHT22;15749;49.606;8.738;2022-09-24T12:39:02;22.10;76.50
28546;DHT22;15749;49.606;8.738;2022-09-24T12:41:45;22.10;77.10
28546;DHT22;15749;49.606;8.738;2022-09-24T12:44:47;22.20;76.50
28546;DHT22;15749;49.606;8.738;2022-09-24T12:47:32;22.20;76.60
28546;DHT22;15749;49.606;8.738;2022-09-24T12:50:25;22.20;76.90
28546;DHT22;15749;49.606;8.738;2022-09-24T12:53:19;22.20;77.30
28546;DHT22;15749;49.606;8.738;2022-09-24T12:56:23;22.20;77.30
28546;DHT22;15749;49.606;8.738;2022-09-24T12:59:05;22.20;77.00
28546;DHT22;15749;49.606;8.738;2022-09-24T13:02:20;22.20;76.90
28546;DHT22;15749;49.606;8.738;2022-09-24T13:08:35;22.30;77.00
28546;DHT22;15749;49.606;8.738;2022-09-24T13:11:29;22.30;77.00
28546;DHT22;15749;49.606;8.738;2022-09-24T13:14:19;22.30;77.00
28546;DHT22;15749;49.606;8.738;2022-09-24T13:17:59;22.30;76.50
28546;DHT22;15749;49.606;8.738;2022-09-24T13:21:01;22.30;77.10
28546;DHT22;15749;49.606;8.738;2022-09-24T13:23:46;22.40;76.80
28546;DHT22;15749;49.606;8.738;2022-09-24T13:26:31;22.40;76.50
28546;DHT22;15749;49.606;8.738;2022-09-24T13:29:23;22.40;76.50
28546;DHT22;15749;49.606;8.738;2022-09-24T13:32:04;22.40;76.80
28546;DHT22;15749;49.606;8.738;2022-09-24T13:34:43;22.40;76.80
28546;DHT22;15749;49.606;8.738;2022-09-24T13:37:34;22.40;77.10
28546;DHT22;15749;49.606;8.738;2022-09-24T13:40:27;22.40;77.00
28546;DHT22;15749;49.606;8.738;2022-09-24T13:43:16;22.40;77.20
28546;DHT22;15749;49.606;8.738;2022-09-24T13:45:57;22.40;77.00
28546;DHT22;15749;49.606;8.738;2022-09-24T13:48:32;22.40;76.60
28546;DHT22;15749;49.606;8.738;2022-09-24T13:51:04;22.50;77.30
28546;DHT22;15749;49.606;8.738;2022-09-24T13:53:40;22.50;76.50
28546;DHT22;15749;49.606;8.738;2022-09-24T13:56:13;22.40;76.50
28546;DHT22;15749;49.606;8.738;2022-09-24T13:58:45;22.40;77.00
28546;DHT22;15749;49.606;8.738;2022-09-24T14:01:19;22.40;76.80
28546;DHT22;15749;49.606;8.738;2022-09-24T14:03:52;22.40;76.80
28546;DHT22;15749;49.606;8.738;2022-09-24T14:06:31;22.40;76.80
28546;DHT22;15749;49.606;8.738;2022-09-24T14:09:01;22.50;77.00
28546;DHT22;15749;49.606;8.738;2022-09-24T14:11:32;22.50;76.90
28546;DHT22;15749;49.606;8.738;2022-09-24T14:14:14;22.50;76.80
28546;DHT22;15749;49.606;8.738;2022-09-24T14:16:44;22.50;76.40
28546;DHT22;15749;49.606;8.738;2022-09-24T14:19:14;22.50;76.40
28546;DHT22;15749;49.606;8.738;2022-09-24T14:21:46;22.50;76.60
28546;DHT22;15749;49.606;8.738;2022-09-24T14:24:20;22.50;76.40
28546;DHT22;15749;49.606;8.738;2022-09-24T14:26:53;22.40;76.80
28546;DHT22;15749;49.606;8.738;2022-09-24T14:29:26;22.40;76.80
28546;DHT22;15749;49.606;8.738;2022-09-24T14:32:01;22.50;76.60
28546;DHT22;15749;49.606;8.738;2022-09-24T14:34:33;22.40;76.60
28546;DHT22;15749;49.606;8.738;2022-09-24T14:37:08;22.50;76.30
28546;DHT22;15749;49.606;8.738;2022-09-24T14:39:40;22.50;75.90
28546;DHT22;15749;49.606;8.738;2022-09-24T14:42:19;22.50;76.20
28546;DHT22;15749;49.606;8.738;2022-09-24T14:44:52;22.50;76.20
28546;DHT22;15749;49.606;8.738;2022-09-24T14:47:25;22.40;76.60
28546;DHT22;15749;49.606;8.738;2022-09-24T14:49:55;22.50;76.90
28546;DHT22;15749;49.606;8.738;2022-09-24T14:52:27;22.50;77.10
28546;DHT22;15749;49.606;8.738;2022-09-24T14:55:13;22.50;77.20
28546;DHT22;15749;49.606;8.738;2022-09-24T14:57:44;22.50;77.20
28546;DHT22;15749;49.606;8.738;2022-09-24T15:00:24;22.50;77.00
28546;DHT22;15749;49.606;8.738;2022-09-24T15:02:57;22.50;77.00
28546;DHT22;15749;49.606;8.738;2022-09-24T15:05:29;22.50;77.30
28546;DHT22;15749;49.606;8.738;2022-09-24T15:08:24;22.50;77.90
28546;DHT22;15749;49.606;8.738;2022-09-24T15:10:55;22.50;77.90
28546;DHT22;15749;49.606;8.738;2022-09-24T15:13:31;22.50;77.50
28546;DHT22;15749;49.606;8.738;2022-09-24T15:16:05;22.50;77.70
28546;DHT22;15749;49.606;8.738;2022-09-24T15:18:42;22.60;77.80
28546;DHT22;15749;49.606;8.738;2022-09-24T15:21:11;22.60;78.40
28546;DHT22;15749;49.606;8.738;2022-09-24T15:23:40;22.60;77.70
28546;DHT22;15749;49.606;8.738;2022-09-24T15:26:09;22.50;77.70
28546;DHT22;15749;49.606;8.738;2022-09-24T15:28:38;22.60;77.80
28546;DHT22;15749;49.606;8.738;2022-09-24T15:31:09;22.60;77.70
28546;DHT22;15749;49.606;8.738;2022-09-24T15:33:38;22.60;78.40
28546;DHT22;15749;49.606;8.738;2022-09-24T15:36:08;22.60;77.30
28546;DHT22;15749;49.606;8.738;2022-09-24T15:38:38;22.50;77.30
28546;DHT22;15749;49.606;8.738;2022-09-24T15:41:07;22.50;77.40
28546;DHT22;15749;49.606;8.738;2022-09-24T15:43:36;22.50;77.30
28546;DHT22;15749;49.606;8.738;2022-09-24T15:46:06;22.50;77.40
28546;DHT22;15749;49.606;8.738;2022-09-24T15:48:36;22.50;77.10
28546;DHT22;15749;49.606;8.738;2022-09-24T15:51:05;22.50;76.80
28546;DHT22;15749;49.606;8.738;2022-09-24T15:53:42;22.50;77.10
28546;DHT22;15749;49.606;8.738;2022-09-24T15:56:11;22.50;77.20
28546;DHT22;15749;49.606;8.738;2022-09-24T15:58:40;22.50;77.40
28546;DHT22;15749;49.606;8.738;2022-09-24T16:01:13;22.50;77.60
28546;DHT22;15749;49.606;8.738;2022-09-24T16:03:46;22.50;78.00
28546;DHT22;15749;49.606;8.738;2022-09-24T16:06:15;22.50;77.90
28546;DHT22;15749;49.606;8.738;2022-09-24T16:08:44;22.50;77.90
28546;DHT22;15749;49.606;8.738;2022-09-24T16:11:13;22.50;78.00
28546;DHT22;15749;49.606;8.738;2022-09-24T16:13:43;22.50;78.10
28546;DHT22;15749;49.606;8.738;2022-09-24T16:16:11;22.50;78.20
28546;DHT22;15749;49.606;8.738;2022-09-24T16:18:41;22.50;78.10
28546;DHT22;15749;49.606;8.738;2022-09-24T16:21:11;22.50;78.20
28546;DHT22;15749;49.606;8.738;2022-09-24T16:23:40;22.50;78.30
28546;DHT22;15749;49.606;8.738;2022-09-24T16:26:09;22.50;78.40
28546;DHT22;15749;49.606;8.738;2022-09-24T16:28:38;22.50;78.50
28546;DHT22;15749;49.606;8.738;2022-09-24T16:31:07;22.40;78.60
28546;DHT22;15749;49.606;8.738;2022-09-24T16:33:37;22.40;78.70
28546;DHT22;15749;49.606;8.738;2022-09-24T16:36:07;22.40;78.80
28546;DHT22;15749;49.606;8.738;2022-09-24T16:38:38;22.40;78.80
28546;DHT22;15749;49.606;8.738;2022-09-24T16:41:07;22.40;78.90
28546;DHT22;15749;49.606;8.738;2022-09-24T16:43:37;22.40;78.70
28546;DHT22;15749;49.606;8.738;2022-09-24T16:46:08;22.40;78.80
28546;DHT22;15749;49.606;8.738;2022-09-24T16:48:40;22.40;79.00
28546;DHT22;15749;49.606;8.738;2022-09-24T16:51:10;22.40;79.60
28546;DHT22;15749;49.606;8.738;2022-09-24T16:53:41;22.40;78.90
28546;DHT22;15749;49.606;8.738;2022-09-24T16:56:16;22.30;78.80
28546;DHT22;15749;49.606;8.738;2022-09-24T16:58:45;22.30;78.90
28546;DHT22;15749;49.606;8.738;2022-09-24T17:01:16;22.30;78.90
28546;DHT22;15749;49.606;8.738;2022-09-24T17:03:49;22.30;79.80
28546;DHT22;15749;49.606;8.738;2022-09-24T17:06:20;22.30;79.20
28546;DHT22;15749;49.606;8.738;2022-09-24T17:08:51;22.20;79.00
28546;DHT22;15749;49.606;8.738;2022-09-24T17:11:38;22.20;79.20
28546;DHT22;15749;49.606;8.738;2022-09-24T17:14:09;22.20;79.20